KSBM/SBM METAR and TAF weather

Enter ICAO airport designator
Station Type Date Time Source
KSBM METAR 2018/12/17 03:53 UTC NOAA

KSBM 170353Z AUTO 28008KT 10SM CLR 02/M04 A3001 RMK AO2 SLP169 T00221039


Station Type Date Time Source
KSBM Decoded METAR 2018/12/17 03:53 UTC NOAA

SHEBOYGAN CO MEMORIAL AIRPORT , WI, United States (KSBM) 43-47N 87-51W 232M
Dec 16, 2018 - 10:53 PM EST / 2018.12.17 0353 UTC
Wind: from the W (280 degrees) at 9 MPH (8 KT):0
Visibility: 10 mile(s):0
Sky conditions: clear
Temperature: 36.0 F (2.2 C)
Dew Point: 25.0 F (-3.9 C)
Relative Humidity: 63%
Pressure (altimeter): 30.01 in. Hg (1016 hPa)
ob: KSBM 170353Z AUTO 28008KT 10SM CLR 02/M04 A3001 RMK AO2 SLP169 T00221039
cycle: 4

Station Type Date Time Source
KSBM TAF UTC NOAA

Error!


Example: see airport list